createdAt,value
2022-10-11T00:00:39.144Z,100607.52
2022-10-11T00:03:26.944Z,100607.67
2022-10-11T00:05:54.622Z,100604.67
2022-10-11T00:08:22.501Z,100598.61
2022-10-11T00:10:58.779Z,100607.54
2022-10-11T00:13:27.138Z,100602.91
2022-10-11T00:15:55.801Z,100598.75
2022-10-11T00:18:24.064Z,100603.38
2022-10-11T00:21:00.945Z,100603.16
2022-10-11T00:23:28.483Z,100606.04
2022-10-11T00:26:04.992Z,100603.89
2022-10-11T00:28:33.280Z,100602.64
2022-10-11T00:31:01.294Z,100605.01
2022-10-11T00:33:29.231Z,100604.13
2022-10-11T00:35:59.727Z,100602.66
2022-10-11T00:38:27.316Z,100602.13
2022-10-11T00:40:54.889Z,100599.45
2022-10-11T00:43:25.594Z,100590.21
2022-10-11T00:45:56.185Z,100597.06
2022-10-11T00:48:29.166Z,100594.70
2022-10-11T00:51:00.117Z,100590.73
2022-10-11T00:53:30.410Z,100595.41
2022-10-11T00:56:09.150Z,100596.54
2022-10-11T00:58:38.617Z,100590.83
2022-10-11T01:01:06.260Z,100580.79
2022-10-11T01:03:36.867Z,100585.73
2022-10-11T01:06:05.047Z,100583.01
2022-10-11T01:08:33.559Z,100578.64
2022-10-11T01:11:02.832Z,100578.45
2022-10-11T01:13:33.079Z,100573.10
2022-10-11T01:16:26.902Z,100568.55
2022-10-11T01:18:57.430Z,100562.64
2022-10-11T01:21:53.286Z,100561.17
2022-10-11T01:24:39.415Z,100564.45
2022-10-11T01:27:35.088Z,100563.04
2022-10-11T01:30:20.577Z,100550.69
2022-10-11T01:33:01.005Z,100558.52
2022-10-11T01:35:36.524Z,100557.47
2022-10-11T01:38:19.164Z,100555.16
2022-10-11T01:40:52.833Z,100561.14
2022-10-11T01:43:21.839Z,100552.80
2022-10-11T01:45:56.412Z,100554.95
2022-10-11T01:48:23.968Z,100553.29
2022-10-11T01:51:01.991Z,100555.21
2022-10-11T01:54:03.638Z,100554.48
2022-10-11T01:56:49.827Z,100561.77
2022-10-11T01:59:38.194Z,100557.86
2022-10-11T02:02:24.490Z,100552.20
2022-10-11T02:05:15.912Z,100552.03
2022-10-11T02:08:04.003Z,100554.30
2022-10-11T02:10:40.966Z,100551.74
2022-10-11T02:13:27.215Z,100548.92
2022-10-11T02:15:58.332Z,100544.89
2022-10-11T02:18:32.075Z,100551.74
2022-10-11T02:21:03.949Z,100551.17
2022-10-11T02:23:36.949Z,100547.39
2022-10-11T02:26:07.037Z,100541.79
2022-10-11T02:28:38.045Z,100538.45
2022-10-11T02:31:09.240Z,100541.48
2022-10-11T02:33:43.117Z,100543.56
2022-10-11T02:36:35.955Z,100544.90
2022-10-11T02:39:12.034Z,100546.83
2022-10-11T02:41:43.069Z,100552.83
2022-10-11T02:44:19.788Z,100550.19
2022-10-11T02:46:50.241Z,100545.09
2022-10-11T02:49:19.840Z,100548.45
2022-10-11T02:51:48.798Z,100544.56
2022-10-11T02:54:17.026Z,100545.39
2022-10-11T02:56:44.608Z,100553.35
2022-10-11T02:59:12.573Z,100550.56
2022-10-11T03:01:40.187Z,100553.77
2022-10-11T03:04:07.870Z,100556.44
2022-10-11T03:06:35.405Z,100558.57
2022-10-11T03:09:03.447Z,100561.00
2022-10-11T03:11:31.000Z,100561.02
2022-10-11T03:13:58.581Z,100557.98
2022-10-11T03:16:26.160Z,100562.80
2022-10-11T03:18:53.719Z,100565.55
2022-10-11T03:21:21.317Z,100556.73
2022-10-11T03:23:49.091Z,100566.42
2022-10-11T03:26:16.672Z,100569.00
2022-10-11T03:28:44.492Z,100572.02
2022-10-11T03:31:12.077Z,100578.73
2022-10-11T03:33:39.760Z,100582.94
2022-10-11T03:36:09.109Z,100579.33
2022-10-11T03:38:36.868Z,100565.28
2022-10-11T03:41:04.557Z,100571.11
2022-10-11T03:43:32.214Z,100573.77
2022-10-11T03:45:59.875Z,100575.08
2022-10-11T03:48:27.599Z,100585.07
2022-10-11T03:50:55.523Z,100579.98
2022-10-11T03:53:23.495Z,100589.95
2022-10-11T03:55:55.401Z,100601.01
2022-10-11T03:58:23.670Z,100590.33
2022-10-11T04:00:53.672Z,100589.43
2022-10-11T04:03:21.587Z,100591.11
2022-10-11T04:05:49.336Z,100584.55
2022-10-11T04:08:17.009Z,100586.63
2022-10-11T04:10:44.628Z,100589.85
2022-10-11T04:13:12.190Z,100588.48
2022-10-11T04:15:41.352Z,100580.77
2022-10-11T04:18:09.491Z,100590.05
2022-10-11T04:20:37.008Z,100590.04
2022-10-11T04:23:04.795Z,100592.19
2022-10-11T04:25:32.423Z,100591.02
2022-10-11T04:28:00.031Z,100591.00
2022-10-11T04:30:27.622Z,100589.73
2022-10-11T04:32:55.289Z,100593.04
2022-10-11T04:35:23.241Z,100595.21
2022-10-11T04:37:50.822Z,100596.77
2022-10-11T04:40:18.486Z,100605.42
2022-10-11T04:42:46.109Z,100614.92
2022-10-11T04:45:13.714Z,100621.25
2022-10-11T04:47:41.649Z,100614.33
2022-10-11T04:50:09.297Z,100622.73
2022-10-11T04:52:37.025Z,100628.91
2022-10-11T04:55:05.115Z,100635.67
2022-10-11T04:57:32.680Z,100638.98
2022-10-11T05:00:00.249Z,100640.56
2022-10-11T05:02:27.892Z,100646.48
2022-10-11T05:04:55.558Z,100641.43
2022-10-11T05:07:23.199Z,100652.13
2022-10-11T05:09:50.859Z,100649.20
2022-10-11T05:12:18.441Z,100639.02
2022-10-11T05:14:46.020Z,100648.57
2022-10-11T05:17:13.531Z,100657.73
2022-10-11T05:19:41.160Z,100660.06
2022-10-11T05:22:09.055Z,100662.16
2022-10-11T05:24:37.245Z,100664.12
2022-10-11T05:27:04.792Z,100669.61
2022-10-11T05:29:32.402Z,100674.36
2022-10-11T05:32:00.089Z,100674.36
2022-10-11T05:34:27.663Z,100674.10
2022-10-11T05:36:56.698Z,100673.55
2022-10-11T05:39:24.251Z,100673.33
2022-10-11T05:41:52.322Z,100676.85
2022-10-11T05:44:19.872Z,100679.80
2022-10-11T05:46:47.528Z,100685.63
2022-10-11T05:49:15.081Z,100683.46
2022-10-11T05:51:42.684Z,100684.65
2022-10-11T05:54:10.231Z,100685.02
2022-10-11T05:56:37.769Z,100684.58
2022-10-11T05:59:06.262Z,100677.61
2022-10-11T06:01:33.932Z,100688.02
2022-10-11T06:04:01.872Z,100694.66
2022-10-11T06:06:29.417Z,100696.72
2022-10-11T06:08:56.957Z,100701.89
2022-10-11T06:11:27.401Z,100706.85
2022-10-11T06:13:57.965Z,100711.30
2022-10-11T06:16:26.856Z,100717.55
2022-10-11T06:18:56.213Z,100719.02
2022-10-11T06:21:24.493Z,100720.89
2022-10-11T06:23:58.299Z,100735.79
2022-10-11T06:26:29.379Z,100740.71
2022-10-11T06:28:57.354Z,100750.46
2022-10-11T06:53:08.086Z,100766.41
2022-10-11T06:55:34.858Z,100771.85
2022-10-11T06:58:05.857Z,100774.86
2022-10-11T07:00:32.022Z,100784.94
2022-10-11T07:02:58.170Z,100788.28
2022-10-11T07:05:24.427Z,100787.35
2022-10-11T07:07:50.551Z,100789.98
2022-10-11T07:10:16.674Z,100798.83
2022-10-11T07:12:44.234Z,100803.04
2022-10-11T07:15:10.693Z,100803.42
2022-10-11T07:17:37.019Z,100800.14
2022-10-11T07:20:04.328Z,100814.23
2022-10-11T07:22:30.482Z,100818.58
2022-10-11T07:24:56.715Z,100826.63
2022-10-11T07:27:22.969Z,100827.86
2022-10-11T07:29:49.285Z,100840.13
2022-10-11T07:32:15.893Z,100846.14
2022-10-11T07:34:42.923Z,100842.77
2022-10-11T07:37:09.154Z,100853.10
2022-10-11T07:39:35.545Z,100858.42
2022-10-11T07:42:01.775Z,100854.12
2022-10-11T07:44:28.194Z,100863.05
2022-10-11T07:46:54.302Z,100861.98
2022-10-11T07:49:20.526Z,100863.02
2022-10-11T07:51:46.759Z,100867.25
2022-10-11T07:54:12.979Z,100872.11
2022-10-11T07:56:39.538Z,100872.47
2022-10-11T07:59:05.932Z,100876.41
2022-10-11T08:01:32.392Z,100876.26
2022-10-11T08:03:59.200Z,100869.27
2022-10-11T08:06:29.541Z,100875.75
2022-10-11T08:08:58.848Z,100881.29
2022-10-11T08:11:26.613Z,100885.45
2022-10-11T08:13:53.877Z,100888.40
2022-10-11T08:16:21.152Z,100885.71
2022-10-11T08:18:47.454Z,100890.34
2022-10-11T08:21:15.678Z,100895.10
2022-10-11T08:23:42.174Z,100895.93
2022-10-11T08:26:09.375Z,100891.15
2022-10-11T08:28:36.054Z,100892.27
2022-10-11T08:31:03.170Z,100894.61
2022-10-11T08:33:30.284Z,100897.90
2022-10-11T08:35:57.695Z,100899.96
2022-10-11T08:38:23.900Z,100899.55
2022-10-11T08:40:54.607Z,100905.05
2022-10-11T08:43:42.465Z,100897.77
2022-10-11T08:46:10.136Z,100904.95
2022-10-11T08:48:48.439Z,100903.91
2022-10-11T08:51:26.690Z,100907.29
2022-10-11T08:54:13.523Z,100907.53
2022-10-11T08:56:41.175Z,100907.91
2022-10-11T08:59:10.397Z,100907.65
2022-10-11T09:01:41.813Z,100906.84
2022-10-11T09:04:13.766Z,100901.92
2022-10-11T09:06:39.847Z,100910.86
2022-10-11T09:09:30.987Z,100906.98
2022-10-11T09:12:31.164Z,100910.69
2022-10-11T09:15:23.731Z,100918.17
2022-10-11T09:18:09.771Z,100916.05
2022-10-11T09:21:17.516Z,100923.65
2022-10-11T09:23:52.213Z,100931.80
2022-10-11T09:26:28.172Z,100932.92
2022-10-11T09:29:03.578Z,100938.89
2022-10-11T09:31:31.325Z,100941.30
2022-10-11T09:34:10.915Z,100939.20
2022-10-11T09:36:42.928Z,100943.36
2022-10-11T09:39:44.487Z,100946.12
2022-10-11T09:42:11.179Z,100945.95
2022-10-11T09:44:40.674Z,100943.21
2022-10-11T09:47:14.084Z,100953.35
2022-10-11T09:49:44.115Z,100957.67
2022-10-11T09:52:18.564Z,100950.20
2022-10-11T09:54:59.841Z,100960.05
2022-10-11T09:57:36.926Z,100957.45
2022-10-11T10:00:18.285Z,100952.95
2022-10-11T10:02:51.620Z,100961.77
2022-10-11T10:05:36.854Z,100961.13
2022-10-11T10:08:24.023Z,100970.76
2022-10-11T10:11:01.120Z,100964.50
2022-10-11T10:13:55.374Z,100975.44
2022-10-11T10:16:24.357Z,100977.55
2022-10-11T10:19:01.503Z,100979.31
2022-10-11T10:21:30.622Z,100984.38
2022-10-11T10:24:02.188Z,100980.63
2022-10-11T10:26:29.925Z,100980.36
2022-10-11T10:29:08.470Z,100974.38
2022-10-11T10:31:55.397Z,100976.34
2022-10-11T10:34:30.829Z,100968.67
2022-10-11T10:37:02.900Z,100973.59
2022-10-11T10:39:38.848Z,100973.30
2022-10-11T10:42:13.179Z,100979.06
2022-10-11T10:44:39.342Z,100977.34
2022-10-11T10:47:47.097Z,100975.16
2022-10-11T10:50:19.946Z,100976.60
2022-10-11T10:53:31.392Z,100977.52
2022-10-11T10:56:30.920Z,100967.09
2022-10-11T10:59:09.418Z,100966.62
2022-10-11T11:01:50.573Z,100964.17
2022-10-11T11:04:33.466Z,100963.67
2022-10-11T11:07:23.435Z,100968.79
2022-10-11T11:09:58.522Z,100970.60
2022-10-11T11:12:40.840Z,100971.45
2022-10-11T11:15:13.836Z,100966.13
2022-10-11T11:18:17.592Z,100970.63
2022-10-11T11:20:49.531Z,100976.52
2022-10-11T11:23:26.584Z,100974.49
2022-10-11T11:26:06.609Z,100976.75
2022-10-11T11:28:51.959Z,100974.83
2022-10-11T11:31:30.237Z,100974.14
2022-10-11T11:34:04.353Z,100971.69
2022-10-11T11:36:47.856Z,100976.73
2022-10-11T11:39:29.617Z,100975.31
2022-10-11T11:42:01.037Z,100983.70
2022-10-11T11:44:29.884Z,100979.23
2022-10-11T11:47:23.545Z,100985.41
2022-10-11T11:50:22.472Z,100985.18
2022-10-11T11:53:09.140Z,100978.20
2022-10-11T11:55:47.998Z,100987.50
2022-10-11T11:58:32.529Z,100990.65
2022-10-11T12:01:31.372Z,100989.23
2022-10-11T12:04:04.344Z,100991.30
2022-10-11T12:06:33.396Z,100994.65
2022-10-11T12:09:03.325Z,100992.25
2022-10-11T12:11:41.697Z,100994.27
2022-10-11T12:14:20.873Z,100990.98
2022-10-11T12:17:19.656Z,100998.50
2022-10-11T12:20:10.351Z,100994.05
2022-10-11T12:23:00.127Z,100996.38
2022-10-11T12:25:26.583Z,100995.90
2022-10-11T12:27:57.934Z,100994.92
2022-10-11T12:30:50.083Z,100989.35
2022-10-11T12:33:20.988Z,100993.16
2022-10-11T12:35:53.070Z,100994.54
2022-10-11T12:38:23.656Z,101000.14
2022-10-11T12:41:06.091Z,101006.79
2022-10-11T12:43:35.712Z,101005.95
2022-10-11T12:46:27.804Z,101011.19
2022-10-11T12:49:21.180Z,101008.11
2022-10-11T12:51:56.378Z,101015.08
2022-10-11T12:54:32.128Z,101018.20
2022-10-11T12:57:12.435Z,101026.29
2022-10-11T12:59:44.036Z,101027.63
2022-10-11T13:02:41.832Z,101030.77
2022-10-11T13:05:22.472Z,101027.61
2022-10-11T13:07:50.348Z,101031.05
2022-10-11T13:10:23.573Z,101029.86
2022-10-11T13:12:52.524Z,101029.88
2022-10-11T13:15:20.085Z,101030.95
2022-10-11T13:17:48.058Z,101031.00
2022-10-11T13:20:17.292Z,101022.41
2022-10-11T13:22:49.506Z,101028.02
2022-10-11T13:25:23.236Z,101028.66
2022-10-11T13:27:52.160Z,101025.41
2022-10-11T13:30:28.931Z,101022.71
2022-10-11T13:32:56.034Z,101033.75
2022-10-11T13:35:30.768Z,101034.90
2022-10-11T13:37:57.929Z,101039.05
2022-10-11T13:40:25.190Z,101042.52
2022-10-11T13:42:53.596Z,101042.16
2022-10-11T13:45:32.028Z,101045.64
2022-10-11T13:47:58.752Z,101049.08
2022-10-11T13:50:34.684Z,101048.81
2022-10-11T13:53:23.237Z,101049.55
2022-10-11T13:55:58.328Z,101050.64
2022-10-11T13:58:31.604Z,101046.60
2022-10-11T14:01:02.017Z,101053.73
2022-10-11T14:03:41.761Z,101057.64
2022-10-11T14:06:09.548Z,101058.29
2022-10-11T14:08:48.924Z,101058.77
2022-10-11T14:11:32.137Z,101059.40
2022-10-11T14:13:59.090Z,101060.03
2022-10-11T14:16:25.194Z,101066.50
2022-10-11T14:19:07.396Z,101064.64
2022-10-11T14:21:45.828Z,101059.98
2022-10-11T14:24:13.768Z,101058.72
2022-10-11T14:26:43.347Z,101054.52
2022-10-11T14:29:33.396Z,101059.49
2022-10-11T14:32:05.700Z,101064.27
2022-10-11T14:34:33.643Z,101069.13
2022-10-11T14:37:07.465Z,101065.64
2022-10-11T14:39:34.560Z,101064.82
2022-10-11T14:42:00.962Z,101066.97
2022-10-11T14:44:28.746Z,101068.35
2022-10-11T14:46:55.178Z,101070.10
2022-10-11T14:49:27.028Z,101069.55
2022-10-11T14:51:56.037Z,101073.02
2022-10-11T14:54:24.560Z,101072.75
2022-10-11T14:56:55.461Z,101071.97
2022-10-11T14:59:26.444Z,101077.27
2022-10-11T15:01:54.870Z,101079.84
2022-10-11T15:04:27.032Z,101083.20
2022-10-11T15:06:56.575Z,101081.61
2022-10-11T15:09:28.314Z,101082.98
2022-10-11T15:11:55.377Z,101083.76
2022-10-11T15:14:23.761Z,101083.88
2022-10-11T15:19:53.378Z,101088.09
2022-10-11T15:22:20.704Z,101093.48
2022-10-11T15:24:51.377Z,101093.23
2022-10-11T15:27:18.253Z,101092.92
2022-10-11T15:29:44.409Z,101099.79
2022-10-11T15:32:10.718Z,101101.17
2022-10-11T15:34:36.939Z,101103.46
2022-10-11T15:37:03.469Z,101109.90
2022-10-11T15:39:32.273Z,101110.03
2022-10-11T15:42:01.867Z,101112.95
2022-10-11T15:44:28.970Z,101121.66
2022-10-11T15:46:59.846Z,101127.19
2022-10-11T15:49:26.529Z,101127.59
2022-10-11T15:51:52.833Z,101132.27
2022-10-11T15:54:26.993Z,101136.84
2022-10-11T15:56:53.582Z,101137.91
2022-10-11T15:59:19.986Z,101139.66
2022-10-11T16:01:46.504Z,101137.77
2022-10-11T16:04:12.911Z,101143.24
2022-10-11T16:06:40.295Z,101148.86
2022-10-11T16:09:06.483Z,101151.44
2022-10-11T16:11:37.674Z,101154.92
2022-10-11T16:14:03.934Z,101160.31
2022-10-11T16:16:30.097Z,101157.33
2022-10-11T16:18:56.315Z,101154.88
2022-10-11T16:21:23.850Z,101165.77
2022-10-11T16:23:52.581Z,101162.09
2022-10-11T16:26:21.390Z,101165.98
2022-10-11T16:28:48.295Z,101167.34
2022-10-11T16:31:19.427Z,101169.66
2022-10-11T16:33:46.706Z,101164.23
2022-10-11T16:36:34.611Z,101171.20
2022-10-11T16:39:07.892Z,101175.46
2022-10-11T16:41:34.627Z,101173.85
2022-10-11T16:44:01.044Z,101180.12
2022-10-11T16:46:29.892Z,101177.70
2022-10-11T16:48:56.455Z,101180.34
2022-10-11T16:51:23.579Z,101180.80
2022-10-11T16:53:51.286Z,101181.60
2022-10-11T16:56:19.835Z,101181.77
2022-10-11T16:58:46.637Z,101182.96
2022-10-11T17:01:13.225Z,101189.52
2022-10-11T17:03:39.432Z,101194.73
2022-10-11T17:06:06.744Z,101199.19
2022-10-11T17:08:34.536Z,101199.03
2022-10-11T17:11:02.253Z,101198.02
2022-10-11T17:13:28.620Z,101203.06
2022-10-11T17:15:54.772Z,101200.32
2022-10-11T17:18:20.976Z,101204.96
2022-10-11T17:20:47.390Z,101195.70
2022-10-11T17:23:13.966Z,101211.31
2022-10-11T17:25:44.707Z,101207.60
2022-10-11T17:28:11.765Z,101209.45
2022-10-11T17:30:41.023Z,101207.33
2022-10-11T17:33:07.872Z,101207.99
2022-10-11T17:35:34.098Z,101211.57
2022-10-11T17:38:05.713Z,101211.24
2022-10-11T17:40:32.524Z,101212.38
2022-10-11T17:42:58.766Z,101212.81
2022-10-11T17:45:25.005Z,101209.58
2022-10-11T17:47:51.213Z,101216.23
2022-10-11T17:50:17.485Z,101216.22
2022-10-11T17:52:43.887Z,101221.13
2022-10-11T17:55:10.901Z,101221.08
2022-10-11T17:57:37.050Z,101217.33
2022-10-11T18:00:06.214Z,101222.48
2022-10-11T18:02:40.577Z,101212.17
2022-10-11T18:05:08.061Z,101221.09
2022-10-11T18:07:36.238Z,101223.00
2022-10-11T18:10:02.687Z,101222.45
2022-10-11T18:12:29.469Z,101227.33
2022-10-11T18:14:55.628Z,101224.75
2022-10-11T18:17:23.473Z,101225.92
2022-10-11T18:19:50.100Z,101228.47
2022-10-11T18:22:17.282Z,101230.05
2022-10-11T18:24:43.450Z,101232.42
2022-10-11T18:27:11.157Z,101233.06
2022-10-11T18:29:37.462Z,101230.76
2022-10-11T18:32:03.774Z,101232.90
2022-10-11T18:34:30.070Z,101230.64
2022-10-11T18:36:57.708Z,101233.84
2022-10-11T18:39:23.989Z,101234.33
2022-10-11T18:41:51.590Z,101236.30
2022-10-11T18:44:17.712Z,101239.15
2022-10-11T18:46:44.537Z,101241.60
2022-10-11T18:49:12.997Z,101240.47
2022-10-11T18:51:40.932Z,101244.46
2022-10-11T18:54:09.773Z,101246.76
2022-10-11T18:56:36.290Z,101251.20
2022-10-11T18:59:04.695Z,101252.52
2022-10-11T19:01:37.455Z,101249.47
2022-10-11T19:04:05.797Z,101250.10
2022-10-11T19:06:35.029Z,101256.20
2022-10-11T19:09:06.328Z,101253.52
2022-10-11T19:11:32.972Z,101256.38
2022-10-11T19:14:06.265Z,101254.80
2022-10-11T19:19:53.701Z,101253.73
2022-10-11T19:22:21.416Z,101251.13
2022-10-11T19:24:49.088Z,101251.13
2022-10-11T19:27:16.837Z,101251.34
2022-10-11T19:29:44.391Z,101257.98
2022-10-11T19:32:12.085Z,101256.52
2022-10-11T19:34:39.588Z,101261.36
2022-10-11T19:37:07.715Z,101262.46
2022-10-11T19:39:35.336Z,101261.27
2022-10-11T19:42:04.931Z,101261.77
2022-10-11T19:44:37.119Z,101261.33
2022-10-11T19:47:07.403Z,101263.71
2022-10-11T19:49:35.102Z,101265.05
2022-10-11T19:52:03.885Z,101264.56
2022-10-11T19:54:32.208Z,101269.28
2022-10-11T19:57:05.303Z,101269.00
2022-10-11T19:59:40.169Z,101272.50
2022-10-11T20:02:10.359Z,101274.78
2022-10-11T20:04:51.982Z,101274.70
2022-10-11T20:07:21.108Z,101275.65
2022-10-11T20:09:49.055Z,101274.27
2022-10-11T20:12:19.667Z,101274.61
2022-10-11T20:14:47.549Z,101274.31
2022-10-11T20:19:52.964Z,101280.27
2022-10-11T20:22:24.000Z,101283.17
2022-10-11T20:24:51.964Z,101281.39
2022-10-11T20:27:21.360Z,101274.49
2022-10-11T20:29:53.065Z,101283.86
2022-10-11T20:32:20.685Z,101284.92
2022-10-11T20:34:48.847Z,101288.72
2022-10-11T20:37:16.751Z,101289.80
2022-10-11T20:39:44.419Z,101286.48
2022-10-11T20:42:12.104Z,101288.55
2022-10-11T20:44:39.743Z,101283.48
2022-10-11T20:47:08.664Z,101288.98
2022-10-11T20:49:36.553Z,101284.61
2022-10-11T20:52:04.544Z,101294.33
2022-10-11T20:54:34.224Z,101292.92
2022-10-11T20:57:01.884Z,101289.57
2022-10-11T20:59:29.553Z,101289.20
2022-10-11T21:01:57.175Z,101290.50
2022-10-11T21:04:24.696Z,101289.30
2022-10-11T21:06:52.395Z,101284.56
2022-10-11T21:09:20.024Z,101296.34
2022-10-11T21:11:47.589Z,101303.43
2022-10-11T21:14:15.204Z,101306.70
2022-10-11T21:16:43.019Z,101307.02
2022-10-11T21:19:13.986Z,101302.89
2022-10-11T21:21:42.077Z,101304.89
2022-10-11T21:24:09.856Z,101304.16
2022-10-11T21:26:37.497Z,101304.36
2022-10-11T21:29:05.116Z,101301.71
2022-10-11T21:31:34.333Z,101302.78
2022-10-11T21:34:04.942Z,101307.38
2022-10-11T21:36:32.481Z,101305.17
2022-10-11T21:39:00.028Z,101310.38
2022-10-11T21:41:30.129Z,101313.16
2022-10-11T21:43:58.090Z,101315.98
2022-10-11T21:46:54.178Z,101311.13
2022-10-11T21:49:16.623Z,101312.24
2022-10-11T21:51:44.333Z,101316.94
2022-10-11T21:54:11.892Z,101316.03
2022-10-11T21:56:39.541Z,101317.67
2022-10-11T21:59:11.157Z,101317.65
2022-10-11T22:01:41.019Z,101320.77
2022-10-11T22:04:09.236Z,101324.77
2022-10-11T22:06:38.053Z,101322.50
2022-10-11T22:09:06.818Z,101315.81
2022-10-11T22:11:35.192Z,101322.22
2022-10-11T22:14:02.999Z,101326.73
2022-10-11T22:16:30.902Z,101322.05
2022-10-11T22:19:00.014Z,101319.92
2022-10-11T22:21:27.791Z,101315.80
2022-10-11T22:23:55.401Z,101326.26
2022-10-11T22:26:30.644Z,101326.35
2022-10-11T22:28:59.922Z,101322.09
2022-10-11T22:31:28.587Z,101323.20
2022-10-11T22:33:59.712Z,101323.84
2022-10-11T22:36:30.445Z,101323.54
2022-10-11T22:38:58.958Z,101325.81
2022-10-11T22:41:26.654Z,101327.56
2022-10-11T22:43:54.354Z,101327.81
2022-10-11T22:46:21.964Z,101326.67
2022-10-11T22:48:49.642Z,101327.64
2022-10-11T22:51:17.247Z,101326.77
2022-10-11T22:53:45.140Z,101324.90
2022-10-11T22:56:13.119Z,101332.48
2022-10-11T22:58:40.831Z,101333.54
2022-10-11T23:01:14.314Z,101336.22
2022-10-11T23:03:42.771Z,101328.08
2022-10-11T23:06:10.453Z,101329.98
2022-10-11T23:08:38.233Z,101332.60
2022-10-11T23:11:07.533Z,101330.11
2022-10-11T23:13:35.414Z,101329.84
2022-10-11T23:16:11.333Z,101334.28
2022-10-11T23:18:39.101Z,101326.25
2022-10-11T23:21:08.004Z,101337.47
2022-10-11T23:23:35.941Z,101329.09
2022-10-11T23:26:07.177Z,101327.92
2022-10-11T23:28:35.256Z,101337.08
2022-10-11T23:31:11.983Z,101328.45
2022-10-11T23:33:40.052Z,101340.09
2022-10-11T23:36:15.159Z,101343.75
2022-10-11T23:38:43.040Z,101343.92
2022-10-11T23:41:11.540Z,101344.70
2022-10-11T23:43:39.187Z,101342.98
2022-10-11T23:46:06.820Z,101343.46
2022-10-11T23:48:34.499Z,101348.12
2022-10-11T23:51:02.176Z,101347.69
2022-10-11T23:53:29.894Z,101347.42
2022-10-11T23:55:57.621Z,101346.89
2022-10-11T23:58:26.303Z,101344.39
